Time,TemperatureF,DewpointF,PressureIn,WindDirection,WindDirectionDegrees,WindSpeedMPH,WindSpeedGustMPH,Humidity,HourlyPrecipIn,Conditions,Clouds,dailyrainin,SolarRadiationWatts/m^2,SoftwareType,DateUTC
2013-05-04 00:01:00,60.0,48.0,-100.00,ENE,57,2.0,4.0,65,-99.99,,,0.00,0.000000,,2013-05-04 07:01:00,
2013-05-04 00:11:00,60.0,48.0,30.20,ENE,57,2.0,4.0,65,-99.99,,,0.00,0.000000,,2013-05-04 07:11:00,
2013-05-04 00:41:00,57.0,49.0,30.20,East,80,4.0,7.0,72,-99.99,,,0.00,0.000000,,2013-05-04 07:41:00,
2013-05-04 00:52:00,57.0,49.0,30.20,East,80,4.0,7.0,72,-99.99,,,0.00,0.000000,,2013-05-04 07:52:00,
2013-05-04 01:01:00,57.0,49.0,30.20,East,80,4.0,7.0,72,-99.99,,,0.00,0.000000,,2013-05-04 08:01:00,
2013-05-04 01:11:00,57.0,49.0,30.20,East,80,4.0,7.0,72,-99.99,,,0.00,0.000000,,2013-05-04 08:11:00,
2013-05-04 01:41:00,56.0,48.0,30.20,ENE,74,3.0,6.0,73,-99.99,,,0.00,0.000000,,2013-05-04 08:41:00,
2013-05-04 01:52:00,56.0,48.0,30.20,ENE,74,3.0,6.0,73,-99.99,,,0.00,0.000000,,2013-05-04 08:52:00,
2013-05-04 02:02:00,56.0,48.0,30.20,ENE,74,3.0,6.0,73,-99.99,,,0.00,0.000000,,2013-05-04 09:02:00,
2013-05-04 02:11:00,56.0,48.0,30.20,ENE,74,3.0,6.0,73,-99.99,,,0.00,0.000000,,2013-05-04 09:11:00,
2013-05-04 02:42:00,55.0,47.0,30.20,ENE,68,3.0,6.0,73,-99.99,,,0.00,0.000000,,2013-05-04 09:42:00,
2013-05-04 02:53:00,55.0,47.0,30.20,ENE,68,3.0,6.0,73,-99.99,,,0.00,0.000000,,2013-05-04 09:53:00,
2013-05-04 03:02:00,55.0,47.0,30.20,ENE,68,3.0,6.0,73,-99.99,,,0.00,0.000000,,2013-05-04 10:02:00,
2013-05-04 03:12:00,55.0,47.0,30.20,ENE,68,3.0,6.0,73,-99.99,,,0.00,0.000000,,2013-05-04 10:12:00,
2013-05-04 03:42:00,54.0,46.0,30.20,ENE,67,2.0,5.0,75,-99.99,,,0.00,0.000000,,2013-05-04 10:42:00,
2013-05-04 03:53:00,54.0,46.0,30.20,ENE,67,2.0,5.0,75,-99.99,,,0.00,0.000000,,2013-05-04 10:53:00,
2013-05-04 04:02:00,54.0,46.0,30.20,ENE,67,2.0,5.0,75,-99.99,,,0.00,0.000000,,2013-05-04 11:02:00,
2013-05-04 04:11:00,54.0,46.0,30.20,ENE,67,2.0,5.0,75,-99.99,,,0.00,0.000000,,2013-05-04 11:11:00,
2013-05-04 04:42:00,54.0,45.0,30.19,ENE,64,3.0,7.0,72,-99.99,,,0.00,0.000000,,2013-05-04 11:42:00,
2013-05-04 05:00:00,54.0,45.0,30.19,ENE,64,3.0,7.0,72,-99.99,,,0.00,0.000000,,2013-05-04 12:00:00,
2013-05-04 05:12:00,54.0,45.0,30.19,ENE,64,3.0,7.0,72,-99.99,,,0.00,0.000000,,2013-05-04 12:12:00,
2013-05-04 06:41:00,56.0,42.0,30.19,ENE,66,4.0,7.0,59,-99.99,,,0.00,9.070000,,2013-05-04 13:41:00,
2013-05-04 06:52:00,56.0,42.0,30.19,ENE,66,4.0,7.0,59,-99.99,,,0.00,9.070000,,2013-05-04 13:52:00,
2013-05-04 07:02:00,56.0,42.0,30.19,ENE,66,4.0,7.0,59,-99.99,,,0.00,9.070000,,2013-05-04 14:02:00,
2013-05-04 07:11:00,56.0,42.0,30.19,ENE,66,4.0,7.0,59,-99.99,,,0.00,9.070000,,2013-05-04 14:11:00,
2013-05-04 07:41:00,59.0,43.0,30.19,ENE,68,3.0,7.0,55,-99.99,,,0.00,30.680000,,2013-05-04 14:41:00,
2013-05-04 07:52:00,59.0,43.0,30.19,ENE,68,3.0,7.0,55,-99.99,,,0.00,30.680000,,2013-05-04 14:52:00,
2013-05-04 08:01:00,59.0,43.0,30.19,ENE,68,3.0,7.0,55,-99.99,,,0.00,30.680000,,2013-05-04 15:01:00,
2013-05-04 08:11:00,59.0,43.0,30.19,ENE,68,3.0,7.0,55,-99.99,,,0.00,30.680000,,2013-05-04 15:11:00,
2013-05-04 08:43:00,66.0,40.0,30.17,ENE,61,3.0,15.0,39,-99.99,,,0.00,298.920013,,2013-05-04 15:43:00,
2013-05-04 08:53:00,66.0,40.0,30.17,ENE,61,3.0,15.0,39,-99.99,,,0.00,298.920013,,2013-05-04 15:53:00,
2013-05-04 09:03:00,66.0,40.0,30.17,ENE,61,3.0,15.0,39,-99.99,,,0.00,298.920013,,2013-05-04 16:03:00,
2013-05-04 09:12:00,66.0,40.0,30.17,ENE,61,3.0,15.0,39,-99.99,,,0.00,298.920013,,2013-05-04 16:12:00,
2013-05-04 09:42:00,71.0,37.0,30.17,ENE,63,5.0,17.0,27,-99.99,,,0.00,415.839996,,2013-05-04 16:42:00,
2013-05-04 09:52:00,71.0,37.0,30.17,ENE,63,5.0,17.0,27,-99.99,,,0.00,415.839996,,2013-05-04 16:52:00,
2013-05-04 10:02:00,71.0,37.0,30.17,ENE,63,5.0,17.0,27,-99.99,,,0.00,415.839996,,2013-05-04 17:02:00,
2013-05-04 10:12:00,71.0,37.0,30.17,ENE,63,5.0,17.0,27,-99.99,,,0.00,415.839996,,2013-05-04 17:12:00,
2013-05-04 10:42:00,74.0,38.0,30.15,East,82,4.0,12.0,27,-99.99,,,0.00,674.770020,,2013-05-04 17:42:00,
2013-05-04 10:52:00,74.0,38.0,30.15,East,82,4.0,12.0,27,-99.99,,,0.00,674.770020,,2013-05-04 17:52:00,
2013-05-04 11:01:00,74.0,38.0,30.15,East,82,4.0,12.0,27,-99.99,,,0.00,674.770020,,2013-05-04 18:01:00,
2013-05-04 11:12:00,74.0,38.0,30.15,East,82,4.0,12.0,27,-99.99,,,0.00,674.770020,,2013-05-04 18:12:00,
2013-05-04 11:42:00,75.0,37.0,30.13,ENE,76,10.0,29.0,25,-99.99,,,0.00,795.760010,,2013-05-04 18:42:00,
2013-05-04 11:52:00,75.0,37.0,30.13,ENE,76,10.0,29.0,25,-99.99,,,0.00,795.760010,,2013-05-04 18:52:00,
2013-05-04 12:01:00,75.0,37.0,30.13,ENE,76,10.0,29.0,25,-99.99,,,0.00,795.760010,,2013-05-04 19:01:00,
2013-05-04 12:11:00,75.0,37.0,30.13,ENE,76,10.0,29.0,25,-99.99,,,0.00,795.760010,,2013-05-04 19:11:00,
2013-05-04 12:42:00,77.0,36.0,30.12,ENE,75,10.0,27.0,22,-99.99,,,0.00,871.650024,,2013-05-04 19:42:00,
2013-05-04 12:52:00,77.0,36.0,30.12,ENE,75,10.0,27.0,22,-99.99,,,0.00,871.650024,,2013-05-04 19:52:00,
2013-05-04 13:02:00,77.0,36.0,30.12,ENE,75,10.0,27.0,22,-99.99,,,0.00,871.650024,,2013-05-04 20:02:00,
2013-05-04 13:11:00,77.0,36.0,30.12,ENE,75,10.0,27.0,22,-99.99,,,0.00,871.650024,,2013-05-04 20:11:00,
2013-05-04 13:42:00,79.0,34.0,30.09,ENE,75,10.0,25.0,19,-99.99,,,0.00,894.890015,,2013-05-04 20:42:00,
2013-05-04 13:52:00,79.0,34.0,30.09,ENE,75,10.0,25.0,19,-99.99,,,0.00,894.890015,,2013-05-04 20:52:00,
2013-05-04 14:01:00,79.0,34.0,30.09,ENE,75,10.0,25.0,19,-99.99,,,0.00,894.890015,,2013-05-04 21:01:00,
2013-05-04 14:11:00,79.0,34.0,30.09,ENE,75,10.0,25.0,19,-99.99,,,0.00,894.890015,,2013-05-04 21:11:00,
2013-05-04 14:43:00,80.0,31.0,30.07,ENE,76,10.0,25.0,17,-99.99,,,0.00,869.330017,,2013-05-04 21:43:00,
2013-05-04 14:53:00,80.0,31.0,30.07,ENE,76,10.0,25.0,17,-99.99,,,0.00,869.330017,,2013-05-04 21:53:00,
2013-05-04 15:02:00,80.0,31.0,30.07,ENE,76,10.0,25.0,17,-99.99,,,0.00,869.330017,,2013-05-04 22:02:00,
2013-05-04 15:12:00,80.0,31.0,30.07,ENE,76,10.0,25.0,17,-99.99,,,0.00,869.330017,,2013-05-04 22:12:00,
2013-05-04 15:42:00,81.0,32.0,30.04,ENE,78,9.0,23.0,16,-99.99,,,-99.99,791.570007,,2013-05-04 22:42:00,
2013-05-04 15:52:00,81.0,32.0,30.04,ENE,78,9.0,23.0,16,-99.99,,,-99.99,791.570007,,2013-05-04 22:52:00,
2013-05-04 16:02:00,81.0,32.0,30.04,ENE,78,9.0,23.0,16,-99.99,,,-99.99,791.570007,,2013-05-04 23:02:00,
2013-05-04 16:11:00,81.0,32.0,30.04,ENE,78,9.0,23.0,16,-99.99,,,-99.99,791.570007,,2013-05-04 23:11:00,
2013-05-04 16:42:00,81.0,32.0,30.02,East,81,6.0,16.0,16,-99.99,,,-99.99,668.030029,,2013-05-04 23:42:00,
2013-05-04 16:52:00,81.0,32.0,30.02,East,81,6.0,16.0,16,-99.99,,,-99.99,668.030029,,2013-05-04 23:52:00,
2013-05-04 17:01:00,81.0,32.0,30.02,East,81,6.0,16.0,16,-99.99,,,-99.99,668.030029,,2013-05-05 00:01:00,
2013-05-04 17:11:00,81.0,32.0,30.02,East,81,6.0,16.0,16,-99.99,,,-99.99,668.030029,,2013-05-05 00:11:00,
2013-05-04 18:42:00,80.0,29.0,29.98,ENE,74,9.0,19.0,15,-99.99,,,0.00,321.350006,,2013-05-05 01:42:00,
2013-05-04 18:52:00,80.0,29.0,29.98,ENE,74,9.0,19.0,15,-99.99,,,0.00,321.350006,,2013-05-05 01:52:00,
2013-05-04 19:02:00,80.0,29.0,29.98,ENE,74,9.0,19.0,15,-99.99,,,0.00,321.350006,,2013-05-05 02:02:00,
2013-05-04 19:11:00,80.0,29.0,29.98,ENE,74,9.0,19.0,15,-99.99,,,0.00,321.350006,,2013-05-05 02:11:00,
2013-05-04 19:42:00,79.0,27.0,29.97,ENE,71,9.0,22.0,14,-99.99,,,0.00,155.149994,,2013-05-05 02:42:00,
2013-05-04 19:52:00,79.0,27.0,29.97,ENE,71,9.0,22.0,14,-99.99,,,0.00,155.149994,,2013-05-05 02:52:00,
2013-05-04 20:01:00,79.0,27.0,29.97,ENE,71,9.0,22.0,14,-99.99,,,0.00,155.149994,,2013-05-05 03:01:00,
2013-05-04 20:11:00,79.0,27.0,29.97,ENE,71,9.0,22.0,14,-99.99,,,0.00,155.149994,,2013-05-05 03:11:00,
2013-05-04 20:42:00,76.0,31.0,29.97,ENE,78,10.0,20.0,19,-99.99,,,0.00,9.070000,,2013-05-05 03:42:00,
2013-05-04 20:53:00,76.0,31.0,29.97,ENE,78,10.0,20.0,19,-99.99,,,0.00,9.070000,,2013-05-05 03:53:00,
2013-05-04 21:02:00,76.0,31.0,29.97,ENE,78,10.0,20.0,19,-99.99,,,0.00,9.070000,,2013-05-05 04:02:00,
2013-05-04 21:12:00,76.0,31.0,29.97,ENE,78,10.0,20.0,19,-99.99,,,0.00,9.070000,,2013-05-05 04:12:00,
2013-05-04 21:43:00,73.0,33.0,29.99,ENE,74,8.0,15.0,23,-99.99,,,0.00,0.000000,,2013-05-05 04:43:00,
2013-05-04 21:52:00,73.0,33.0,29.99,ENE,74,8.0,15.0,23,-99.99,,,0.00,0.000000,,2013-05-05 04:52:00,
2013-05-04 22:02:00,73.0,33.0,29.99,ENE,74,8.0,15.0,23,-99.99,,,0.00,0.000000,,2013-05-05 05:02:00,
2013-05-04 22:12:00,73.0,33.0,29.99,ENE,74,8.0,15.0,23,-99.99,,,0.00,0.000000,,2013-05-05 05:12:00,
2013-05-04 22:42:00,69.0,35.0,29.98,ENE,71,3.0,9.0,29,-99.99,,,0.00,0.000000,,2013-05-05 05:42:00,
2013-05-04 22:52:00,69.0,35.0,29.98,ENE,71,3.0,9.0,29,-99.99,,,0.00,0.000000,,2013-05-05 05:52:00,
2013-05-04 23:01:00,69.0,35.0,29.98,ENE,71,3.0,9.0,29,-99.99,,,0.00,0.000000,,2013-05-05 06:01:00,
2013-05-04 23:11:00,69.0,35.0,29.98,ENE,71,3.0,9.0,29,-99.99,,,0.00,0.000000,,2013-05-05 06:11:00,
2013-05-04 23:42:00,67.0,36.0,29.97,ENE,60,4.0,8.0,31,-99.99,,,0.00,0.000000,,2013-05-05 06:42:00,
2013-05-04 23:52:00,67.0,36.0,29.97,ENE,60,4.0,8.0,31,-99.99,,,0.00,0.000000,,2013-05-05 06:52:00,